Sagar Sampada — VWXS — position and weather

sailwx.info

Track history (hours):
 
Tides and Currents Weather Stations Pressure Air Temp Water Temp Dewpoint Dewpoint Depression Visibility Wind Speed Wind Dir Waves Ship Positions

Oceanographic research ship Sagar Sampada (India)

Detailed information on ship capabilities available from University of Delaware's Ocean Information Center.

Last reported at 2019-Jun-18 03:09 UTC. Time now 2019-Jun-19 15:17 UTC.
Position N 10°00' E 076°18'.

Type: Other ship. MMSI: 419323000.

Wind from 070 at 4 knots

Barometer 1008.4 mb
Air temperature 30.0 ° C

Date/timePositionNaut miles runAvg speedWind from/ knotsBaromVisibWave heightAir tempDewpointWater temp
2019-Jun-18 03:09N 10°00' E 076°18'0 0.0 070 / 41008.4 30.0
2019-Jun-18 00:09N 10°00' E 076°18'0 0.0 100 / 4
2019-Jun-17 21:09N 10°00' E 076°18'0 0.0 110 / 2
2019-Jun-17 18:09N 10°00' E 076°18'0 0.0 270 1009.0 29.5
2019-Jun-17 15:09N 10°00' E 076°18'0 0.0 240 1008.5 29.7
2019-Jun-17 09:09N 10°00' E 076°18'0 0.0 170 / 21007.4 31.8
2019-Jun-17 06:09N 10°00' E 076°18'0 0.0 140 / 21009.6 28.8
2019-Jun-17 02:39N 10°00' E 076°18'0 0.0 320 / 4
2019-Jun-17 00:09N 10°00' E 076°18'0 0.0 320 / 4
2019-Jun-16 21:09N 10°00' E 076°18'0 0.0 160 / 21007.6 29.5
2019-Jun-16 18:09N 10°00' E 076°18'0 0.0 150 1009.1 29.6
2019-Jun-16 15:09N 10°00' E 076°18'0 0.0 110 1008.8 29.9
2019-Jun-16 12:09N 10°00' E 076°18'0 0.0 160 / 21006.2 32.2
2019-Jun-16 08:39N 10°00' E 076°18'0 0.0 140 / 21006.5 33.1
2019-Jun-16 06:09N 10°00' E 076°18'0 0.0 140 / 21008.2 32.7
2019-Jun-16 03:09N 10°00' E 076°18'0 0.0 280 / 2
2019-Jun-16 00:09N 10°00' E 076°18'0 0.0 340 / 4
2019-Jun-15 21:09N 10°00' E 076°18'0 0.0 320 / 6
2019-Jun-15 18:09N 10°00' E 076°18'0 0.0 330 / 2
2019-Jun-15 15:09N 10°00' E 076°18'0 0.0 240 / 2
2019-Jun-15 09:09N 10°00' E 076°18'0 0.0 180 / 21005.8 32.9
2019-Jun-15 06:09N 10°00' E 076°18'0 0.0 170 1007.7 33.5
2019-Jun-15 03:09N 10°00' E 076°18'0 0.0 210 1008.0 32.4
2019-Jun-14 23:39N 10°00' E 076°18'0 0.0 150 1005.7 27.6
2019-Jun-14 21:09N 10°00' E 076°18'0 0.0 140 / 2 29.3
2019-Jun-14 18:09N 10°00' E 076°18'0 0.0 130 / 41008.3 29.6
2019-Jun-14 15:09N 10°00' E 076°18'0 0.0 120 / 21007.6 29.6
2019-Jun-14 12:09N 10°00' E 076°18'0 0.0 150 / 21005.5 31.6
2019-Jun-14 09:09N 10°00' E 076°18'0 0.0 120 / 81005.7 31.5
2019-Jun-14 05:39N 10°00' E 076°18'0 0.0 120 / 61007.9 31.8
2019-Jun-14 03:09N 10°00' E 076°18'0 0.0 050 / 2
2019-Jun-14 00:09N 10°00' E 076°18'0 0.0 040 / 2
2019-Jun-13 20:39N 10°00' E 076°18'0 0.0 040 / 2
2019-Jun-13 15:09N 10°00' E 076°18'0 0.0 030 / 2
2019-Jun-13 12:09N 10°00' E 076°18'0 0.0 310 / 4
2019-Jun-13 09:09N 10°00' E 076°18'0 0.0 160 / 41007.9 28.8
2019-Jun-13 06:09N 10°00' E 076°18'0 0.0 060 / 2
2019-Jun-12 21:09N 10°00' E 076°18'0 0.0 010 / 2
2019-Jun-12 17:39N 10°00' E 076°18'0 0.0 340 / 4
2019-Jun-12 15:09N 10°00' E 076°18'0 0.0 010 / 4
2019-Jun-12 12:09N 10°00' E 076°18'0 0.0 320 / 4
2019-Jun-12 09:09N 10°00' E 076°18'0 0.0 360 / 4
2019-Jun-12 06:09N 10°00' E 076°18'0 0.0 080 / 4
2019-Jun-12 03:09N 10°00' E 076°18'0 0.0 360 / 4
2019-Jun-12 00:09N 10°00' E 076°18'0 0.0 080 / 4
2019-Jun-11 15:09N 10°00' E 076°18'0 0.0 360 / 6
2019-Jun-11 12:09N 10°00' E 076°18'0 0.0 060 / 4
2019-Jun-11 09:09N 10°00' E 076°18'0 0.0 080 / 4
2019-Jun-11 05:39N 10°00' E 076°18'0 0.0 080 / 10
2019-Jun-11 03:09N 10°00' E 076°18'0 0.0 020 / 4
2019-Jun-11 00:09N 10°00' E 076°18'0 0.0 030 / 6
2019-Jun-10 20:39N 10°00' E 076°18'0 0.0 030 / 6
2019-Jun-10 18:09N 10°00' E 076°18'0 0.0 030 / 6
2019-Jun-10 15:09N 10°00' E 076°18'0 0.0 020 / 6
2019-Jun-10 12:09N 10°00' E 076°18'0 0.0 010 / 6
2019-Jun-10 09:09N 10°00' E 076°18'0 0.0 050 / 6
2019-Jun-10 06:09N 10°00' E 076°18'0 0.0 060 / 4
2019-Jun-10 03:09N 10°00' E 076°18'0 0.0 040 / 8
2019-Jun-09 23:39N 10°00' E 076°18'0 0.0 020 / 8
2019-Jun-09 21:09N 10°00' E 076°18'0 0.0 020 / 6
2019-Jun-09 18:09N 10°00' E 076°18'0 0.0 330 / 8
2019-Jun-09 15:09N 10°00' E 076°18'0 0.0 030 / 2
2019-Jun-09 12:09N 10°00' E 076°18'0 0.0 040 / 10
2019-Jun-09 09:09N 10°00' E 076°18'0 0.0 050 / 4
2019-Jun-09 06:09N 10°00' E 076°18'0 0.0 050 / 81005.8 30.8
2019-Jun-09 02:39N 10°00' E 076°18'0 0.0 020 / 6
2019-Jun-08 23:39N 10°00' E 076°18'0 0.0 030 / 4
2019-Jun-08 21:09N 10°00' E 076°18'0 0.0 050 / 4 26.4
2019-Jun-08 18:09N 10°00' E 076°18'0 0.0 040 / 81006.2 28.6
2019-Jun-08 15:09N 10°00' E 076°18'0 0.0 070 / 61006.3 28.4
2019-Jun-08 12:09N 10°00' E 076°18'0 0.0 100 / 81003.7 30.5
2019-Jun-08 09:09N 10°00' E 076°18'0 0.0 120 / 61004.6 32.0
2019-Jun-08 06:09N 10°00' E 076°18'0 0.0 090 / 81006.1 32.3
2019-Jun-08 02:39N 10°00' E 076°18'0 0.0 020 / 6 30.6
2019-Jun-08 00:09N 10°00' E 076°18'0 0.0 050 / 4
2019-Jun-07 21:09N 10°00' E 076°18'0 0.0
2019-Jun-07 18:09N 10°00' E 076°18'0 0.0 020 / 21008.5 29.1
2019-Jun-07 15:09N 10°00' E 076°18'0 0.0 140 / 41007.8 29.9
2019-Jun-07 12:09N 10°00' E 076°18'0 0.0 130 / 81005.3 30.6
2019-Jun-07 08:39N 10°00' E 076°18'0 0.0 110 / 81005.4 32.2
2019-Jun-07 06:09N 10°00' E 076°18'0 0.0 110 / 81006.0 32.3
2019-Jun-07 03:09N 10°00' E 076°18'0 0.0 310 / 6
2019-Jun-07 00:09N 10°00' E 076°18'0 0.0 320 / 4
2019-Jun-06 21:09N 10°00' E 076°18'0 0.0 120 / 2
2019-Jun-06 18:09N 10°00' E 076°18'0 0.0 130 / 41006.1 30.0
2019-Jun-06 15:09N 10°00' E 076°18'0 0.0 130 / 41005.4 30.4
2019-Jun-06 11:39N 10°00' E 076°18'0 0.0 140 / 61003.4 32.2
2019-Jun-06 09:09N 10°00' E 076°18'0 0.0 160 / 21003.7 34.3
2019-Jun-06 06:09N 10°00' E 076°18'0 0.0 100 1005.9 33.7
2019-Jun-06 03:09N 10°00' E 076°18'0 0.0 050 / 2
2019-Jun-06 00:09N 10°00' E 076°18'0 0.0 310 / 6
2019-Jun-05 21:09N 10°00' E 076°18'0 0.0 350 / 2
2019-Jun-05 18:09N 10°00' E 076°18'0 0.0 340 / 2
2019-Jun-05 15:09N 10°00' E 076°18'0 0.0 210 / 2
2019-Jun-05 12:09N 10°00' E 076°18'0 0.0 080 / 41004.0 31.0
2019-Jun-05 09:09N 10°00' E 076°18'0 0.0 140 / 61003.8 32.2
2019-Jun-05 06:09N 10°00' E 076°18'   160 / 21006.0 33.9
Track history (hours):
 
Tides and Currents Weather Stations Pressure Air Temp Water Temp Dewpoint Dewpoint Depression Visibility Wind Speed Wind Dir Waves Ship Positions

Oceanographic research ship Sagar Sampada (India)

Detailed information on ship capabilities available from University of Delaware's Ocean Information Center.

Last reported at 2019-Jun-18 03:09 UTC. Time now 2019-Jun-19 15:17 UTC.
Position N 10°00' E 076°18'.

Type: Other ship. MMSI: 419323000.

Wind from 070 at 4 knots

Barometer 1008.4 mb
Air temperature 30.0 ° C

Date/timePositionNaut miles runAvg speedWind from/ knotsBaromVisibWave heightAir tempDewpointWater temp
2019-Jun-18 03:09N 10°00' E 076°18'0 0.0 070 / 41008.4 30.0
2019-Jun-18 00:09N 10°00' E 076°18'0 0.0 100 / 4
2019-Jun-17 21:09N 10°00' E 076°18'0 0.0 110 / 2
2019-Jun-17 18:09N 10°00' E 076°18'0 0.0 270 1009.0 29.5
2019-Jun-17 15:09N 10°00' E 076°18'0 0.0 240 1008.5 29.7
2019-Jun-17 09:09N 10°00' E 076°18'0 0.0 170 / 21007.4 31.8
2019-Jun-17 06:09N 10°00' E 076°18'0 0.0 140 / 21009.6 28.8
2019-Jun-17 02:39N 10°00' E 076°18'0 0.0 320 / 4
2019-Jun-17 00:09N 10°00' E 076°18'0 0.0 320 / 4
2019-Jun-16 21:09N 10°00' E 076°18'0 0.0 160 / 21007.6 29.5
2019-Jun-16 18:09N 10°00' E 076°18'0 0.0 150 1009.1 29.6
2019-Jun-16 15:09N 10°00' E 076°18'0 0.0 110 1008.8 29.9
2019-Jun-16 12:09N 10°00' E 076°18'0 0.0 160 / 21006.2 32.2
2019-Jun-16 08:39N 10°00' E 076°18'0 0.0 140 / 21006.5 33.1
2019-Jun-16 06:09N 10°00' E 076°18'0 0.0 140 / 21008.2 32.7
2019-Jun-16 03:09N 10°00' E 076°18'0 0.0 280 / 2
2019-Jun-16 00:09N 10°00' E 076°18'0 0.0 340 / 4
2019-Jun-15 21:09N 10°00' E 076°18'0 0.0 320 / 6
2019-Jun-15 18:09N 10°00' E 076°18'0 0.0 330 / 2
2019-Jun-15 15:09N 10°00' E 076°18'0 0.0 240 / 2
2019-Jun-15 09:09N 10°00' E 076°18'0 0.0 180 / 21005.8 32.9
2019-Jun-15 06:09N 10°00' E 076°18'0 0.0 170 1007.7 33.5
2019-Jun-15 03:09N 10°00' E 076°18'0 0.0 210 1008.0 32.4
2019-Jun-14 23:39N 10°00' E 076°18'0 0.0 150 1005.7 27.6
2019-Jun-14 21:09N 10°00' E 076°18'0 0.0 140 / 2 29.3
2019-Jun-14 18:09N 10°00' E 076°18'0 0.0 130 / 41008.3 29.6
2019-Jun-14 15:09N 10°00' E 076°18'0 0.0 120 / 21007.6 29.6
2019-Jun-14 12:09N 10°00' E 076°18'0 0.0 150 / 21005.5 31.6
2019-Jun-14 09:09N 10°00' E 076°18'0 0.0 120 / 81005.7 31.5
2019-Jun-14 05:39N 10°00' E 076°18'0 0.0 120 / 61007.9 31.8
2019-Jun-14 03:09N 10°00' E 076°18'0 0.0 050 / 2
2019-Jun-14 00:09N 10°00' E 076°18'0 0.0 040 / 2
2019-Jun-13 20:39N 10°00' E 076°18'0 0.0 040 / 2
2019-Jun-13 15:09N 10°00' E 076°18'0 0.0 030 / 2
2019-Jun-13 12:09N 10°00' E 076°18'0 0.0 310 / 4
2019-Jun-13 09:09N 10°00' E 076°18'0 0.0 160 / 41007.9 28.8
2019-Jun-13 06:09N 10°00' E 076°18'0 0.0 060 / 2
2019-Jun-12 21:09N 10°00' E 076°18'0 0.0 010 / 2
2019-Jun-12 17:39N 10°00' E 076°18'0 0.0 340 / 4
2019-Jun-12 15:09N 10°00' E 076°18'0 0.0 010 / 4
2019-Jun-12 12:09N 10°00' E 076°18'0 0.0 320 / 4
2019-Jun-12 09:09N 10°00' E 076°18'0 0.0 360 / 4
2019-Jun-12 06:09N 10°00' E 076°18'0 0.0 080 / 4
2019-Jun-12 03:09N 10°00' E 076°18'0 0.0 360 / 4
2019-Jun-12 00:09N 10°00' E 076°18'0 0.0 080 / 4
2019-Jun-11 15:09N 10°00' E 076°18'0 0.0 360 / 6
2019-Jun-11 12:09N 10°00' E 076°18'0 0.0 060 / 4
2019-Jun-11 09:09N 10°00' E 076°18'0 0.0 080 / 4
2019-Jun-11 05:39N 10°00' E 076°18'0 0.0 080 / 10
2019-Jun-11 03:09N 10°00' E 076°18'0 0.0 020 / 4
2019-Jun-11 00:09N 10°00' E 076°18'0 0.0 030 / 6
2019-Jun-10 20:39N 10°00' E 076°18'0 0.0 030 / 6
2019-Jun-10 18:09N 10°00' E 076°18'0 0.0 030 / 6
2019-Jun-10 15:09N 10°00' E 076°18'0 0.0 020 / 6
2019-Jun-10 12:09N 10°00' E 076°18'0 0.0 010 / 6
2019-Jun-10 09:09N 10°00' E 076°18'0 0.0 050 / 6
2019-Jun-10 06:09N 10°00' E 076°18'0 0.0 060 / 4
2019-Jun-10 03:09N 10°00' E 076°18'0 0.0 040 / 8
2019-Jun-09 23:39N 10°00' E 076°18'0 0.0 020 / 8
2019-Jun-09 21:09N 10°00' E 076°18'0 0.0 020 / 6
2019-Jun-09 18:09N 10°00' E 076°18'0 0.0 330 / 8
2019-Jun-09 15:09N 10°00' E 076°18'0 0.0 030 / 2
2019-Jun-09 12:09N 10°00' E 076°18'0 0.0 040 / 10
2019-Jun-09 09:09N 10°00' E 076°18'0 0.0 050 / 4
2019-Jun-09 06:09N 10°00' E 076°18'0 0.0 050 / 81005.8 30.8
2019-Jun-09 02:39N 10°00' E 076°18'0 0.0 020 / 6
2019-Jun-08 23:39N 10°00' E 076°18'0 0.0 030 / 4
2019-Jun-08 21:09N 10°00' E 076°18'0 0.0 050 / 4 26.4
2019-Jun-08 18:09N 10°00' E 076°18'0 0.0 040 / 81006.2 28.6
2019-Jun-08 15:09N 10°00' E 076°18'0 0.0 070 / 61006.3 28.4
2019-Jun-08 12:09N 10°00' E 076°18'0 0.0 100 / 81003.7 30.5
2019-Jun-08 09:09N 10°00' E 076°18'0 0.0 120 / 61004.6 32.0
2019-Jun-08 06:09N 10°00' E 076°18'0 0.0 090 / 81006.1 32.3
2019-Jun-08 02:39N 10°00' E 076°18'0 0.0 020 / 6 30.6
2019-Jun-08 00:09N 10°00' E 076°18'0 0.0 050 / 4
2019-Jun-07 21:09N 10°00' E 076°18'0 0.0
2019-Jun-07 18:09N 10°00' E 076°18'0 0.0 020 / 21008.5 29.1
2019-Jun-07 15:09N 10°00' E 076°18'0 0.0 140 / 41007.8 29.9
2019-Jun-07 12:09N 10°00' E 076°18'0 0.0 130 / 81005.3 30.6
2019-Jun-07 08:39N 10°00' E 076°18'0 0.0 110 / 81005.4 32.2
2019-Jun-07 06:09N 10°00' E 076°18'0 0.0 110 / 81006.0 32.3
2019-Jun-07 03:09N 10°00' E 076°18'0 0.0 310 / 6
2019-Jun-07 00:09N 10°00' E 076°18'0 0.0 320 / 4
2019-Jun-06 21:09N 10°00' E 076°18'0 0.0 120 / 2
2019-Jun-06 18:09N 10°00' E 076°18'0 0.0 130 / 41006.1 30.0
2019-Jun-06 15:09N 10°00' E 076°18'0 0.0 130 / 41005.4 30.4
2019-Jun-06 11:39N 10°00' E 076°18'0 0.0 140 / 61003.4 32.2
2019-Jun-06 09:09N 10°00' E 076°18'0 0.0 160 / 21003.7 34.3
2019-Jun-06 06:09N 10°00' E 076°18'0 0.0 100 1005.9 33.7
2019-Jun-06 03:09N 10°00' E 076°18'0 0.0 050 / 2
2019-Jun-06 00:09N 10°00' E 076°18'0 0.0 310 / 6
2019-Jun-05 21:09N 10°00' E 076°18'0 0.0 350 / 2
2019-Jun-05 18:09N 10°00' E 076°18'0 0.0 340 / 2
2019-Jun-05 15:09N 10°00' E 076°18'0 0.0 210 / 2
2019-Jun-05 12:09N 10°00' E 076°18'0 0.0 080 / 41004.0 31.0
2019-Jun-05 09:09N 10°00' E 076°18'0 0.0 140 / 61003.8 32.2
2019-Jun-05 06:09N 10°00' E 076°18'   160 / 21006.0 33.9

Dump ship's entire track history